Time;durP1;ratioP1;P1;durP2;ratioP2;P2;SDS_P1;SDS_P2;PMS_P1;PMS_P2;Temp;Humidity;BMP_temperature;BMP_pressure;BME280_temperature;BME280_humidity;BME280_pressure;Samples;Min_cycle;Max_cycle;Signal;HPM_P1;HPM_P2
2021/10/31 00:00:52;;;;;;;19.67;11.73;;;11.40;99.90;;;;;;5049010;28;20412;-60
2021/10/31 00:03:18;;;;;;;19.83;12.20;;;11.40;99.90;;;;;;5048487;28;20056;-61
2021/10/31 00:05:44;;;;;;;18.15;11.48;;;11.40;99.90;;;;;;5046899;28;20035;-63
2021/10/31 00:08:10;;;;;;;16.73;11.52;;;11.30;99.90;;;;;;5049237;28;20136;-63
2021/10/31 00:10:36;;;;;;;20.30;11.68;;;11.30;99.90;;;;;;5049363;28;20523;-62
2021/10/31 00:13:01;;;;;;;23.02;11.07;;;11.30;99.90;;;;;;5031914;28;20025;-62
2021/10/31 00:15:27;;;;;;;17.40;11.15;;;11.30;99.90;;;;;;5045728;28;20403;-62
2021/10/31 00:17:52;;;;;;;15.27;9.68;;;11.30;99.90;;;;;;5044272;28;20032;-62
2021/10/31 00:20:18;;;;;;;13.45;9.80;;;11.30;99.90;;;;;;5048903;28;20037;-62
2021/10/31 00:22:45;;;;;;;17.85;10.00;;;11.30;99.90;;;;;;5045371;28;20025;-63
2021/10/31 00:25:11;;;;;;;12.18;9.15;;;11.20;99.90;;;;;;5047829;28;20037;-63
2021/10/31 00:27:38;;;;;;;16.27;10.68;;;11.20;99.90;;;;;;5045463;28;20037;-63
2021/10/31 00:30:04;;;;;;;15.82;9.68;;;11.10;99.90;;;;;;5042446;28;20022;-62
2021/10/31 00:32:29;;;;;;;18.20;9.15;;;11.00;99.90;;;;;;5035115;28;20017;-62
2021/10/31 00:34:55;;;;;;;16.55;9.98;;;11.00;99.90;;;;;;5022764;28;20032;-62
2021/10/31 00:37:21;;;;;;;13.68;9.43;;;11.00;99.90;;;;;;5048751;28;20032;-62
2021/10/31 00:39:46;;;;;;;17.25;10.20;;;10.90;99.90;;;;;;5030269;28;20402;-62
2021/10/31 00:42:12;;;;;;;18.17;9.63;;;10.90;99.90;;;;;;5047950;28;20651;-62
2021/10/31 00:44:38;;;;;;;16.15;9.13;;;10.90;99.90;;;;;;5030936;28;20029;-63
2021/10/31 00:47:04;;;;;;;13.85;9.20;;;10.90;99.90;;;;;;5047246;28;20091;-62
2021/10/31 00:49:30;;;;;;;22.20;9.05;;;10.80;99.90;;;;;;5049525;28;20025;-62
2021/10/31 00:51:55;;;;;;;19.33;9.40;;;10.90;99.90;;;;;;5047865;28;20025;-61
2021/10/31 00:54:21;;;;;;;15.70;7.57;;;10.90;99.90;;;;;;5047325;28;20224;-61
2021/10/31 00:56:47;;;;;;;13.40;7.15;;;10.90;99.90;;;;;;5043014;28;20029;-62
2021/10/31 00:59:13;;;;;;;14.32;7.10;;;10.90;99.90;;;;;;5047601;28;20025;-61
2021/10/31 01:01:38;;;;;;;17.08;8.65;;;10.90;99.90;;;;;;5047661;28;20028;-61
2021/10/31 01:04:04;;;;;;;18.52;7.82;;;10.90;99.90;;;;;;5048217;28;20021;-62
2021/10/31 01:06:38;;;;;;;9.55;6.53;;;10.90;99.90;;;;;;5043593;28;20112;-62
2021/10/31 01:09:10;;;;;;;10.35;6.80;;;10.80;99.90;;;;;;5045941;28;20037;-63
2021/10/31 01:11:58;;;;;;;10.93;7.35;;;10.70;99.90;;;;;;5045686;28;20055;-62
2021/10/31 01:14:51;;;;;;;14.40;8.25;;;10.60;99.90;;;;;;5041469;28;20047;-63
2021/10/31 01:17:58;;;;;;;18.73;8.38;;;10.50;99.90;;;;;;5045802;28;20028;-62
2021/10/31 01:20:45;;;;;;;15.13;8.20;;;10.40;99.90;;;;;;5045279;28;20040;-62
2021/10/31 01:23:32;;;;;;;18.10;8.57;;;10.30;99.90;;;;;;5043118;28;20025;-62
2021/10/31 01:26:38;;;;;;;11.95;7.90;;;10.30;99.90;;;;;;5047247;28;20117;-63
2021/10/31 01:29:19;;;;;;;12.63;8.32;;;10.20;99.90;;;;;;5029946;28;20097;-62
2021/10/31 01:32:22;;;;;;;13.50;9.10;;;10.20;99.90;;;;;;5045194;28;20098;-62
2021/10/31 01:34:48;;;;;;;19.27;8.48;;;10.20;99.90;;;;;;5044851;28;20025;-63
2021/10/31 01:37:13;;;;;;;18.13;8.77;;;10.10;99.90;;;;;;5048685;28;20033;-62
2021/10/31 01:39:50;;;;;;;16.83;9.40;;;10.10;99.90;;;;;;5047949;28;20390;-61
2021/10/31 01:42:22;;;;;;;13.10;7.95;;;10.00;99.90;;;;;;5082978;23;20040;-56
2021/10/31 01:45:02;;;;;;;13.27;7.90;;;10.00;99.90;;;;;;5064895;28;20032;-57
2021/10/31 01:48:02;;;;;;;13.10;7.63;;;10.00;99.90;;;;;;5059386;28;20112;-56
2021/10/31 01:50:43;;;;;;;16.98;8.10;;;10.00;99.90;;;;;;5065321;28;20074;-54
2021/10/31 01:53:29;;;;;;;14.07;7.50;;;9.90;99.90;;;;;;5041928;28;20027;-57
2021/10/31 01:56:08;;;;;;;10.65;7.05;;;9.90;99.90;;;;;;5046414;28;20063;-55
2021/10/31 01:58:43;;;;;;;9.65;6.30;;;9.90;99.90;;;;;;5044256;28;20632;-56
2021/10/31 02:01:14;;;;;;;9.15;6.22;;;9.80;99.90;;;;;;5044871;28;20036;-50
2021/10/31 02:03:40;;;;;;;13.13;6.90;;;9.90;99.90;;;;;;5039770;28;20025;-50
2021/10/31 02:06:07;;;;;;;9.27;6.70;;;9.90;99.90;;;;;;5042645;28;21074;-52
2021/10/31 02:08:34;;;;;;;9.93;6.10;;;9.80;99.90;;;;;;5050078;28;20086;-58
2021/10/31 02:11:01;;;;;;;9.98;6.40;;;9.80;99.90;;;;;;5049235;28;20025;-55
2021/10/31 02:13:28;;;;;;;7.55;5.93;;;9.80;99.90;;;;;;5043357;28;20033;-53
2021/10/31 02:15:55;;;;;;;9.13;5.93;;;9.80;99.90;;;;;;5052677;28;20032;-53
2021/10/31 02:18:24;;;;;;;10.43;5.38;;;9.70;99.90;;;;;;5027815;28;20033;-51
2021/10/31 02:20:56;;;;;;;6.90;5.13;;;9.70;99.90;;;;;;5048886;28;20460;-56
2021/10/31 02:23:23;;;;;;;7.68;5.13;;;9.70;99.90;;;;;;5045355;28;20079;-56
2021/10/31 02:25:49;;;;;;;11.10;5.45;;;9.70;99.90;;;;;;5049635;28;20431;-55
2021/10/31 02:28:15;;;;;;;12.80;5.53;;;9.80;99.90;;;;;;5048720;28;20039;-56
2021/10/31 02:30:40;;;;;;;12.13;5.80;;;9.80;99.90;;;;;;5047595;28;20025;-57
2021/10/31 02:33:06;;;;;;;17.00;6.13;;;9.80;99.90;;;;;;5048706;28;20029;-56
2021/10/31 02:35:31;;;;;;;22.08;5.60;;;9.80;99.90;;;;;;5041540;28;20281;-57
2021/10/31 02:37:57;;;;;;;19.67;5.75;;;9.80;99.90;;;;;;5048699;28;20056;-56
2021/10/31 02:40:23;;;;;;;23.70;5.53;;;9.80;99.90;;;;;;5050326;28;20041;-55
2021/10/31 02:42:50;;;;;;;20.58;5.15;;;9.80;99.90;;;;;;5049839;28;20379;-58
2021/10/31 02:45:16;;;;;;;9.07;5.07;;;9.80;99.90;;;;;;5051720;28;20025;-55
2021/10/31 02:47:51;;;;;;;20.95;5.53;;;9.80;99.90;;;;;;5047246;28;20021;-59
2021/10/31 02:50:19;;;;;;;;;;;9.80;99.90;;;;;;5047972;28;20063;-55
2021/10/31 02:53:22;;;;;;;8.15;5.30;;;9.70;99.90;;;;;;5050790;28;19916;-55
2021/10/31 02:56:03;;;;;;;6.63;5.60;;;9.70;99.90;;;;;;5049117;28;20030;-55
2021/10/31 02:58:55;;;;;;;8.90;5.78;;;9.70;99.90;;;;;;5048683;28;20066;-54
2021/10/31 03:01:22;;;;;;;6.18;4.70;;;9.70;99.90;;;;;;5047126;28;20106;-59
2021/10/31 03:03:51;;;;;;;7.25;5.03;;;9.70;99.90;;;;;;5049486;28;20071;-58
2021/10/31 03:06:20;;;;;;;19.73;6.20;;;9.60;99.90;;;;;;5040690;28;20068;-56
2021/10/31 03:08:46;;;;;;;8.55;5.43;;;9.60;99.90;;;;;;5045578;28;20048;-53
2021/10/31 03:11:11;;;;;;;13.07;7.20;;;9.50;99.90;;;;;;5033476;28;20487;-53
2021/10/31 03:13:38;;;;;;;12.73;6.80;;;9.50;99.90;;;;;;5044735;28;20025;-56
2021/10/31 03:16:06;;;;;;;7.70;5.43;;;9.40;99.90;;;;;;5046440;28;20368;-59
2021/10/31 03:18:31;;;;;;;11.57;5.30;;;9.30;99.90;;;;;;5048307;28;20029;-57
2021/10/31 03:20:57;;;;;;;6.85;5.20;;;9.30;99.90;;;;;;5046298;28;20491;-56
2021/10/31 03:23:23;;;;;;;7.97;6.10;;;9.20;99.90;;;;;;5038978;28;20040;-60
2021/10/31 03:25:48;;;;;;;13.10;6.15;;;9.10;99.90;;;;;;5048425;28;20132;-56
2021/10/31 03:28:14;;;;;;;12.05;7.15;;;9.10;99.90;;;;;;5046998;28;20021;-55
2021/10/31 03:30:39;;;;;;;10.10;6.82;;;9.10;99.90;;;;;;5046673;28;20033;-57
2021/10/31 03:33:05;;;;;;;12.95;5.95;;;9.10;99.90;;;;;;5045668;28;20078;-58
2021/10/31 03:35:31;;;;;;;11.50;6.15;;;9.10;99.90;;;;;;5041471;28;20029;-56
2021/10/31 03:37:57;;;;;;;7.80;5.82;;;9.00;99.90;;;;;;5049837;28;20040;-56
2021/10/31 03:40:23;;;;;;;15.40;6.75;;;9.00;99.90;;;;;;5049360;28;20048;-57
2021/10/31 03:42:50;;;;;;;9.98;6.30;;;8.90;99.90;;;;;;5045162;28;20491;-56
2021/10/31 03:45:15;;;;;;;8.02;5.65;;;8.90;99.90;;;;;;5046719;28;20030;-58
2021/10/31 03:47:51;;;;;;;9.15;6.20;;;8.80;99.90;;;;;;5045664;28;20033;-55
2021/10/31 03:50:18;;;;;;;13.23;6.25;;;8.80;99.90;;;;;;5031275;28;20300;-60
2021/10/31 03:52:45;;;;;;;13.57;6.85;;;8.90;99.90;;;;;;5044056;28;20041;-59
2021/10/31 03:55:11;;;;;;;11.43;6.75;;;8.80;99.90;;;;;;5027560;28;20032;-54
2021/10/31 03:57:38;;;;;;;12.10;7.10;;;8.80;99.90;;;;;;5042305;28;20067;-57
2021/10/31 04:00:09;;;;;;;11.63;7.55;;;8.80;99.90;;;;;;5048825;28;20060;-58
2021/10/31 04:02:35;;;;;;;15.13;8.18;;;8.80;99.90;;;;;;5044541;28;20025;-58
2021/10/31 04:05:01;;;;;;;14.57;8.02;;;8.70;99.90;;;;;;5051515;28;20033;-61
2021/10/31 04:07:26;;;;;;;15.38;9.00;;;8.70;99.90;;;;;;5042788;28;20048;-57
2021/10/31 04:09:52;;;;;;;12.00;8.07;;;8.70;99.90;;;;;;5049270;28;20028;-58
2021/10/31 04:12:18;;;;;;;11.05;8.45;;;8.70;99.90;;;;;;5047087;28;20021;-58
2021/10/31 04:14:43;;;;;;;13.73;7.53;;;8.70;99.90;;;;;;5050090;28;20053;-60
2021/10/31 04:17:09;;;;;;;12.05;7.95;;;8.70;99.90;;;;;;5047240;28;20056;-58
2021/10/31 04:19:34;;;;;;;13.10;7.72;;;8.70;99.90;;;;;;5049489;28;20021;-57
2021/10/31 04:22:00;;;;;;;15.93;8.88;;;8.70;99.90;;;;;;5048363;28;20033;-60
2021/10/31 04:24:25;;;;;;;13.23;8.55;;;8.70;99.90;;;;;;5045187;28;20076;-56
2021/10/31 04:26:53;;;;;;;11.85;8.20;;;8.80;99.90;;;;;;5040369;28;20031;-57
2021/10/31 04:29:18;;;;;;;10.57;7.78;;;8.80;99.90;;;;;;5045131;28;20029;-54
2021/10/31 04:31:44;;;;;;;12.65;7.88;;;8.90;99.90;;;;;;5045142;28;20568;-60
2021/10/31 04:34:10;;;;;;;14.23;7.93;;;8.90;99.90;;;;;;5046031;28;20040;-53
2021/10/31 04:36:35;;;;;;;12.63;8.00;;;8.90;99.90;;;;;;5039722;28;20025;-56
2021/10/31 04:39:01;;;;;;;12.38;7.75;;;8.90;99.90;;;;;;5041279;28;20037;-54
2021/10/31 04:41:29;;;;;;;14.13;7.78;;;8.80;99.90;;;;;;5038514;28;20520;-55
2021/10/31 04:43:55;;;;;;;17.35;8.05;;;8.80;99.90;;;;;;5040982;28;20033;-57
2021/10/31 04:46:20;;;;;;;11.35;7.35;;;8.80;99.90;;;;;;5044588;28;20035;-54
2021/10/31 04:48:46;;;;;;;9.48;7.68;;;8.80;99.90;;;;;;5038866;28;20535;-58
2021/10/31 04:51:12;;;;;;;12.18;8.10;;;8.80;99.90;;;;;;5040886;28;20025;-55
2021/10/31 04:53:38;;;;;;;10.68;7.80;;;8.80;99.90;;;;;;5042062;28;20108;-55
2021/10/31 04:56:04;;;;;;;13.82;7.93;;;8.80;99.90;;;;;;5044155;28;20116;-58
2021/10/31 04:58:29;;;;;;;16.13;7.78;;;8.80;99.90;;;;;;5044564;28;20056;-59
2021/10/31 05:00:55;;;;;;;10.10;7.78;;;8.80;99.90;;;;;;5049037;28;20033;-58
2021/10/31 05:03:21;;;;;;;10.85;7.53;;;8.80;99.90;;;;;;5045261;28;20024;-58
2021/10/31 05:05:46;;;;;;;13.40;7.85;;;8.90;99.90;;;;;;5045555;28;20043;-55
2021/10/31 05:08:12;;;;;;;11.63;7.45;;;8.90;99.90;;;;;;5050482;28;20028;-56
2021/10/31 05:10:38;;;;;;;16.05;7.97;;;8.90;99.90;;;;;;5044445;28;20377;-60
2021/10/31 05:13:03;;;;;;;12.98;7.28;;;9.00;99.90;;;;;;5035925;28;20024;-58
2021/10/31 05:15:29;;;;;;;11.32;8.00;;;9.00;99.90;;;;;;5040667;28;20167;-60
2021/10/31 05:17:56;;;;;;;14.77;9.23;;;9.00;99.90;;;;;;5040061;28;20443;-57
2021/10/31 05:20:21;;;;;;;14.90;7.53;;;9.00;99.90;;;;;;5021982;28;20029;-53
2021/10/31 05:22:47;;;;;;;10.68;7.93;;;9.00;99.90;;;;;;5037187;28;20513;-56
2021/10/31 05:25:13;;;;;;;10.65;7.82;;;9.00;99.90;;;;;;5027577;28;20029;-56
2021/10/31 05:27:39;;;;;;;12.90;8.90;;;8.90;99.90;;;;;;5045839;28;20032;-57
2021/10/31 05:30:08;;;;;;;9.98;7.63;;;8.90;99.90;;;;;;5041669;28;20128;-58
2021/10/31 05:32:35;;;;;;;11.93;7.72;;;8.90;99.90;;;;;;5037903;28;20068;-56
2021/10/31 05:35:01;;;;;;;11.00;7.75;;;8.80;99.90;;;;;;5040622;28;20063;-56
2021/10/31 05:37:36;;;;;;;12.32;7.85;;;8.80;99.90;;;;;;5038534;28;20048;-58
2021/10/31 05:40:07;;;;;;;13.60;7.22;;;8.80;99.90;;;;;;5038674;28;20029;-57
2021/10/31 05:42:33;;;;;;;11.40;7.72;;;8.80;99.90;;;;;;5039104;28;20045;-58
2021/10/31 05:44:59;;;;;;;12.43;7.25;;;8.80;99.90;;;;;;5050577;28;20021;-58
2021/10/31 05:47:25;;;;;;;11.55;6.88;;;8.80;99.90;;;;;;5044256;28;20113;-58
2021/10/31 05:49:52;;;;;;;12.68;7.22;;;8.70;99.90;;;;;;5044917;28;20096;-58
2021/10/31 05:52:17;;;;;;;13.02;7.30;;;8.70;99.90;;;;;;5045747;28;20071;-57
2021/10/31 05:54:43;;;;;;;16.55;7.32;;;8.70;99.90;;;;;;5049386;28;20433;-57
2021/10/31 05:57:09;;;;;;;16.48;8.15;;;8.70;99.90;;;;;;5044897;28;20120;-60
2021/10/31 05:59:35;;;;;;;14.48;8.18;;;8.70;99.90;;;;;;5051180;28;20025;-58
2021/10/31 06:02:00;;;;;;;14.45;7.13;;;8.70;99.90;;;;;;5050209;28;20086;-56
2021/10/31 06:04:28;;;;;;;9.35;7.28;;;8.70;99.90;;;;;;5044554;28;20041;-56
2021/10/31 06:06:53;;;;;;;9.52;7.22;;;8.60;99.90;;;;;;5047005;28;20418;-58
2021/10/31 06:09:19;;;;;;;13.43;7.78;;;8.60;99.90;;;;;;5029270;28;20070;-58
2021/10/31 06:11:45;;;;;;;16.65;7.82;;;8.60;99.90;;;;;;5049374;28;20105;-58
2021/10/31 06:14:11;;;;;;;12.23;7.38;;;8.60;99.90;;;;;;5041025;28;20017;-58
2021/10/31 06:16:37;;;;;;;16.00;7.07;;;8.60;99.90;;;;;;5049057;28;20021;-60
2021/10/31 06:19:04;;;;;;;10.05;7.40;;;8.50;99.90;;;;;;5050954;28;20549;-59
2021/10/31 06:21:30;;;;;;;9.88;6.80;;;8.50;99.90;;;;;;5042736;28;20035;-60
2021/10/31 06:23:55;;;;;;;10.27;6.65;;;8.30;99.90;;;;;;5045840;28;20343;-58
2021/10/31 06:26:21;;;;;;;8.98;6.78;;;8.30;99.90;;;;;;5049681;28;20102;-58
2021/10/31 06:28:46;;;;;;;13.32;6.75;;;8.30;99.90;;;;;;5047579;28;20438;-54
2021/10/31 06:31:12;;;;;;;11.98;7.22;;;8.30;99.90;;;;;;5044305;28;20025;-58
2021/10/31 06:33:37;;;;;;;10.30;6.70;;;8.30;99.90;;;;;;5046941;28;20443;-56
2021/10/31 06:36:03;;;;;;;9.60;6.88;;;8.30;99.90;;;;;;5041456;28;20407;-55
2021/10/31 06:38:29;;;;;;;12.75;7.55;;;8.30;99.90;;;;;;5047076;28;20025;-54
2021/10/31 06:40:54;;;;;;;14.48;7.18;;;8.30;99.90;;;;;;5043997;28;20041;-60
2021/10/31 06:43:20;;;;;;;12.02;6.95;;;8.40;99.90;;;;;;5045415;28;20091;-58
2021/10/31 06:45:46;;;;;;;8.70;6.53;;;8.40;99.90;;;;;;5044876;28;20522;-57
2021/10/31 06:48:11;;;;;;;9.30;6.97;;;8.40;99.90;;;;;;5047412;28;20087;-58
2021/10/31 06:50:37;;;;;;;10.45;6.82;;;8.50;99.90;;;;;;5045097;28;20029;-60
2021/10/31 06:53:03;;;;;;;10.55;7.00;;;8.60;99.90;;;;;;5049342;28;20032;-55
2021/10/31 06:55:28;;;;;;;13.23;7.15;;;8.60;99.90;;;;;;5043364;28;20033;-56
2021/10/31 06:57:55;;;;;;;11.85;7.35;;;8.70;99.90;;;;;;5049767;28;20025;-58
2021/10/31 07:00:22;;;;;;;16.60;8.02;;;8.80;99.90;;;;;;5047411;28;20013;-57
2021/10/31 07:02:48;;;;;;;16.52;9.35;;;8.80;99.90;;;;;;5047632;28;20024;-57
2021/10/31 07:05:14;;;;;;;11.23;8.45;;;8.90;99.90;;;;;;5048778;28;20251;-55
2021/10/31 07:07:39;;;;;;;13.32;8.82;;;9.00;99.90;;;;;;5046030;28;20086;-56
2021/10/31 07:10:06;;;;;;;14.55;8.98;;;9.00;99.90;;;;;;5052283;28;20100;-57
2021/10/31 07:12:31;;;;;;;16.40;9.02;;;9.10;99.90;;;;;;5047610;28;20437;-57
2021/10/31 07:14:57;;;;;;;13.07;8.00;;;9.20;99.90;;;;;;5048411;28;20107;-56
2021/10/31 07:17:23;;;;;;;11.18;9.05;;;9.30;99.90;;;;;;5041666;28;20415;-56
2021/10/31 07:19:48;;;;;;;11.88;8.43;;;9.40;99.90;;;;;;5048374;28;20065;-58
2021/10/31 07:22:18;;;;;;;12.82;8.23;;;9.40;99.90;;;;;;5044997;28;20021;-60
2021/10/31 07:24:45;;;;;;;16.60;7.85;;;9.50;99.90;;;;;;5046622;28;20037;-58
2021/10/31 07:27:16;;;;;;;13.82;8.43;;;9.60;99.90;;;;;;5045051;28;20489;-60
2021/10/31 07:29:41;;;;;;;13.40;7.97;;;9.70;99.90;;;;;;5046607;28;20025;-58
2021/10/31 07:32:07;;;;;;;14.80;8.23;;;9.70;99.90;;;;;;5047284;28;20075;-58
2021/10/31 07:34:33;;;;;;;16.33;8.68;;;9.80;99.90;;;;;;5041767;28;20033;-60
2021/10/31 07:36:58;;;;;;;13.55;7.20;;;9.90;99.90;;;;;;5045726;28;20427;-58
2021/10/31 07:39:24;;;;;;;11.02;7.25;;;9.90;99.90;;;;;;5043631;28;20032;-58
2021/10/31 07:41:50;;;;;;;12.70;7.97;;;10.00;99.90;;;;;;5071066;23;20178;-61
2021/10/31 07:44:16;;;;;;;12.25;7.00;;;10.10;99.90;;;;;;5064357;28;20028;-63
2021/10/31 07:46:42;;;;;;;9.68;7.28;;;10.20;99.90;;;;;;5058527;28;20025;-58
2021/10/31 07:49:10;;;;;;;10.38;7.70;;;10.20;99.90;;;;;;5067241;28;20029;-60
2021/10/31 07:51:35;;;;;;;10.13;7.93;;;10.30;99.90;;;;;;5064606;28;20032;-57
2021/10/31 07:54:01;;;;;;;16.13;7.85;;;10.30;99.90;;;;;;5065581;28;20440;-56
2021/10/31 07:56:30;;;;;;;11.25;7.47;;;10.40;99.90;;;;;;5062413;28;20037;-55
2021/10/31 07:58:56;;;;;;;10.13;7.25;;;10.40;99.90;;;;;;5056078;28;20033;-57
2021/10/31 08:01:23;;;;;;;11.85;8.07;;;10.40;99.90;;;;;;5058132;28;20111;-56
2021/10/31 08:03:50;;;;;;;12.60;7.82;;;10.50;99.90;;;;;;5061518;28;20090;-56
2021/10/31 08:06:17;;;;;;;7.88;6.70;;;10.50;99.90;;;;;;5064341;28;20025;-58
2021/10/31 08:08:42;;;;;;;10.43;8.52;;;10.50;99.90;;;;;;5062649;28;20023;-53
2021/10/31 08:11:08;;;;;;;13.43;8.88;;;10.50;99.90;;;;;;5057396;28;20103;-52
2021/10/31 08:13:34;;;;;;;12.20;8.98;;;10.60;99.90;;;;;;5062914;28;20493;-54
2021/10/31 08:15:59;;;;;;;15.88;10.20;;;10.60;99.90;;;;;;5060861;28;20024;-56
2021/10/31 08:18:25;;;;;;;15.07;9.80;;;10.70;99.90;;;;;;5060349;28;20024;-59
2021/10/31 08:20:51;;;;;;;11.25;7.90;;;10.70;99.90;;;;;;5059746;28;20035;-62
2021/10/31 08:23:17;;;;;;;9.65;7.03;;;10.70;99.90;;;;;;5060346;28;20100;-54
2021/10/31 08:25:44;;;;;;;11.88;7.82;;;10.70;99.90;;;;;;5059283;28;20167;-60
2021/10/31 08:28:12;;;;;;;12.77;8.20;;;10.80;99.90;;;;;;5059623;28;20143;-59
2021/10/31 08:30:41;;;;;;;17.90;8.75;;;10.80;99.90;;;;;;5062588;28;20032;-61
2021/10/31 08:33:18;;;;;;;9.43;8.43;;;10.80;99.90;;;;;;5059389;28;20020;-58
2021/10/31 08:35:43;;;;;;;11.52;8.48;;;10.90;99.90;;;;;;5063609;28;20016;-59
2021/10/31 08:38:10;;;;;;;13.10;8.82;;;10.90;99.90;;;;;;5058821;28;20051;-61
2021/10/31 08:40:37;;;;;;;14.57;8.55;;;10.90;99.90;;;;;;5058731;28;20024;-61
2021/10/31 08:43:02;;;;;;;16.17;9.57;;;11.00;99.90;;;;;;5059955;28;20031;-59
2021/10/31 08:45:28;;;;;;;10.15;7.85;;;11.00;99.90;;;;;;5061408;28;20399;-59
2021/10/31 08:47:53;;;;;;;11.30;8.57;;;11.10;99.90;;;;;;5061200;28;20501;-58
2021/10/31 08:50:19;;;;;;;16.67;9.20;;;11.20;99.90;;;;;;5056051;28;20029;-60
2021/10/31 08:52:44;;;;;;;13.10;9.73;;;11.20;99.90;;;;;;5056208;28;20115;-54
2021/10/31 08:55:10;;;;;;;13.10;10.23;;;11.30;99.90;;;;;;5062617;28;20032;-58
2021/10/31 08:57:36;;;;;;;23.85;10.85;;;11.40;99.90;;;;;;5060311;28;20085;-59
2021/10/31 09:00:02;;;;;;;13.20;10.13;;;11.40;99.90;;;;;;5060394;28;20479;-58
2021/10/31 09:02:28;;;;;;;13.63;10.68;;;11.50;99.90;;;;;;5059896;28;20032;-58
2021/10/31 09:04:53;;;;;;;13.82;9.93;;;11.50;99.90;;;;;;5058928;28;20029;-59
2021/10/31 09:07:19;;;;;;;16.13;9.90;;;11.60;99.90;;;;;;5058664;28;20025;-58
2021/10/31 09:09:45;;;;;;;14.10;9.32;;;11.70;99.90;;;;;;5064604;28;20025;-59
2021/10/31 09:12:12;;;;;;;14.70;10.02;;;11.80;99.90;;;;;;5060898;28;20024;-57
2021/10/31 09:14:38;;;;;;;11.43;8.00;;;11.90;99.90;;;;;;5043410;28;20035;-54
2021/10/31 09:17:04;;;;;;;14.32;7.95;;;12.00;99.90;;;;;;5057379;28;20133;-59
2021/10/31 09:19:29;;;;;;;9.52;7.40;;;12.10;99.90;;;;;;5064487;28;20493;-60
2021/10/31 09:21:55;;;;;;;11.25;7.70;;;12.20;99.90;;;;;;5062123;28;20111;-63
2021/10/31 09:24:21;;;;;;;8.13;6.60;;;12.30;99.90;;;;;;5060934;28;20028;-59
2021/10/31 09:26:46;;;;;;;7.88;7.05;;;12.30;99.90;;;;;;5059081;28;20032;-63
2021/10/31 09:29:13;;;;;;;9.77;7.57;;;12.40;99.90;;;;;;5064805;28;20051;-56
2021/10/31 09:31:39;;;;;;;15.45;7.22;;;12.50;99.90;;;;;;5059791;28;20025;-63
2021/10/31 09:34:05;;;;;;;12.55;8.40;;;12.50;99.90;;;;;;5060377;28;20033;-60
2021/10/31 09:36:35;;;;;;;12.68;7.82;;;12.60;99.90;;;;;;5058611;28;20033;-59
2021/10/31 09:39:05;;;;;;;9.00;7.43;;;12.60;99.90;;;;;;5060298;28;20591;-60
2021/10/31 09:41:31;;;;;;;9.75;7.55;;;12.60;99.90;;;;;;5063321;28;20824;-56
2021/10/31 09:44:23;;;;;;;10.23;7.13;;;12.70;99.90;;;;;;5067053;28;20028;-58
2021/10/31 09:46:49;;;;;;;12.27;7.95;;;12.70;99.90;;;;;;5062566;28;20035;-59
2021/10/31 09:49:15;;;;;;;13.40;8.35;;;12.80;99.90;;;;;;5062857;28;20032;-61
2021/10/31 09:51:43;;;;;;;11.40;8.45;;;12.90;99.90;;;;;;5068327;28;20425;-59
2021/10/31 09:54:10;;;;;;;19.05;9.07;;;12.90;99.90;;;;;;5060766;28;20074;-59
2021/10/31 09:56:37;;;;;;;10.40;8.25;;;13.00;99.90;;;;;;5064968;28;20067;-58
2021/10/31 09:59:04;;;;;;;10.27;8.48;;;13.10;99.90;;;;;;5065795;28;20029;-59
2021/10/31 10:01:50;;;;;;;10.98;8.57;;;13.20;99.90;;;;;;5061457;28;20043;-57
2021/10/31 10:04:28;;;;;;;16.27;9.07;;;13.30;99.90;;;;;;5067558;28;20063;-57
2021/10/31 10:06:55;;;;;;;11.63;8.13;;;13.40;99.90;;;;;;5063510;28;20036;-56
2021/10/31 10:09:21;;;;;;;11.10;8.43;;;13.50;99.90;;;;;;5064718;28;20051;-58
2021/10/31 10:11:47;;;;;;;16.15;9.32;;;13.50;99.90;;;;;;5063389;28;20501;-59
2021/10/31 10:14:28;;;;;;;11.35;7.85;;;13.60;99.90;;;;;;5066745;28;20036;-60
2021/10/31 10:17:11;;;;;;;11.38;8.13;;;13.70;99.90;;;;;;5069387;28;20017;-57
2021/10/31 10:19:50;;;;;;;10.63;7.25;;;13.80;99.90;;;;;;5067578;28;20124;-59
2021/10/31 10:22:19;;;;;;;8.98;7.72;;;13.90;99.90;;;;;;5060089;28;20042;-61
2021/10/31 10:24:59;;;;;;;9.45;7.72;;;14.00;99.90;;;;;;5066125;28;20032;-59
2021/10/31 10:27:30;;;;;;;10.45;7.65;;;14.10;99.90;;;;;;5056499;28;20036;-59
2021/10/31 10:29:57;;;;;;;9.52;7.55;;;14.20;99.90;;;;;;5060492;28;20032;-59
2021/10/31 10:32:25;;;;;;;15.18;6.85;;;14.30;99.90;;;;;;5061677;28;20025;-58
2021/10/31 10:34:55;;;;;;;10.02;7.10;;;14.30;99.90;;;;;;5068451;28;20111;-58
2021/10/31 10:37:30;;;;;;;8.88;6.53;;;14.30;99.90;;;;;;5068988;28;20484;-61
2021/10/31 10:40:00;;;;;;;10.75;6.43;;;14.30;99.90;;;;;;5061722;28;20036;-60
2021/10/31 10:42:36;;;;;;;9.15;6.68;;;14.40;99.90;;;;;;5060714;28;20040;-58
2021/10/31 10:45:16;;;;;;;12.10;7.15;;;14.50;99.90;;;;;;5071051;28;20078;-59
2021/10/31 10:47:55;;;;;;;8.10;6.40;;;14.60;99.90;;;;;;5068707;28;20474;-58
2021/10/31 10:50:42;;;;;;;15.50;5.95;;;14.70;99.90;;;;;;5071890;28;20043;-58
2021/10/31 10:53:21;;;;;;;6.93;5.53;;;14.70;99.90;;;;;;5061316;28;20032;-59
2021/10/31 10:55:47;;;;;;;8.20;5.45;;;14.70;99.90;;;;;;5067232;28;20453;-61
2021/10/31 10:58:15;;;;;;;6.35;5.28;;;14.70;99.90;;;;;;5059047;28;20120;-61
2021/10/31 11:00:46;;;;;;;9.25;5.03;;;14.70;99.90;;;;;;5057558;28;20414;-61
2021/10/31 11:03:18;;;;;;;6.80;4.68;;;14.70;99.90;;;;;;5038727;28;20028;-58
2021/10/31 11:05:59;;;;;;;5.73;4.63;;;14.70;99.90;;;;;;5039875;28;20029;-58
2021/10/31 11:08:24;;;;;;;6.00;4.75;;;14.70;99.90;;;;;;5037043;28;20116;-56
2021/10/31 11:11:10;;;;;;;6.38;4.65;;;14.70;99.90;;;;;;5058752;28;20135;-60
2021/10/31 11:13:51;;;;;;;8.55;4.95;;;14.70;99.90;;;;;;5054728;28;21577;-60
2021/10/31 11:16:17;;;;;;;4.97;4.45;;;14.70;99.90;;;;;;5056988;28;20029;-56
2021/10/31 11:18:45;;;;;;;7.15;4.18;;;14.70;99.90;;;;;;5037248;28;20025;-56
2021/10/31 11:21:11;;;;;;;8.52;4.47;;;14.80;99.90;;;;;;5039450;28;20037;-61
2021/10/31 11:23:37;;;;;;;6.18;4.75;;;14.80;99.90;;;;;;5056398;28;20098;-58
2021/10/31 11:26:04;;;;;;;7.47;4.93;;;14.90;99.90;;;;;;5056733;28;20024;-56
2021/10/31 11:28:31;;;;;;;9.15;4.95;;;14.90;99.90;;;;;;5057853;28;20028;-53
2021/10/31 11:30:57;;;;;;;5.65;4.38;;;15.00;99.90;;;;;;5057521;28;20041;-59
2021/10/31 11:33:24;;;;;;;12.32;4.70;;;15.00;99.90;;;;;;5057171;28;20029;-53
2021/10/31 11:35:52;;;;;;;5.88;3.92;;;15.10;99.90;;;;;;5056612;28;20025;-58
2021/10/31 11:38:21;;;;;;;6.93;4.70;;;15.20;99.90;;;;;;5055318;28;20107;-59
2021/10/31 11:41:03;;;;;;;7.45;4.70;;;15.20;99.90;;;;;;5056479;28;20130;-56
2021/10/31 11:43:31;;;;;;;6.05;4.10;;;15.30;99.90;;;;;;5057355;28;20096;-55
2021/10/31 11:45:57;;;;;;;6.63;3.75;;;15.30;99.90;;;;;;5057519;28;20029;-58
2021/10/31 11:48:26;;;;;;;9.82;4.10;;;15.30;99.90;;;;;;5058055;28;20033;-57
2021/10/31 11:51:01;;;;;;;7.80;4.10;;;15.30;99.90;;;;;;5057067;28;20020;-54
2021/10/31 11:53:29;;;;;;;5.63;4.53;;;15.40;99.90;;;;;;5056590;28;20096;-57
2021/10/31 11:55:59;;;;;;;5.47;4.25;;;15.40;99.90;;;;;;5056930;28;20405;-54
2021/10/31 11:58:37;;;;;;;4.38;3.67;;;15.40;99.90;;;;;;5057574;28;20028;-55
2021/10/31 12:01:29;;;;;;;4.57;3.40;;;15.40;99.90;;;;;;5055614;28;20035;-56
2021/10/31 12:03:58;;;;;;;3.47;3.17;;;15.40;99.90;;;;;;5057265;28;20061;-53
2021/10/31 12:06:26;;;;;;;6.95;4.03;;;15.50;99.90;;;;;;5057175;28;20469;-56
2021/10/31 12:08:54;;;;;;;8.93;3.40;;;15.50;99.90;;;;;;5055401;28;20028;-57
2021/10/31 12:11:40;;;;;;;4.22;3.35;;;15.40;99.90;;;;;;5053002;28;20171;-57
2021/10/31 12:14:10;;;;;;;6.78;3.40;;;15.40;99.90;;;;;;5053479;28;20040;-56
2021/10/31 12:16:57;;;;;;;5.47;3.90;;;15.40;99.90;;;;;;5055274;28;20486;-55
2021/10/31 12:19:37;;;;;;;4.70;3.05;;;15.30;99.90;;;;;;5053619;28;20052;-52
2021/10/31 12:22:10;;;;;;;4.47;3.15;;;15.30;99.90;;;;;;5039858;28;20700;-60
2021/10/31 12:24:38;;;;;;;4.32;3.30;;;15.40;99.90;;;;;;5056057;28;20041;-54
2021/10/31 12:27:10;;;;;;;6.00;3.45;;;15.40;99.90;;;;;;5056470;28;20067;-57
2021/10/31 12:29:36;;;;;;;5.65;3.00;;;15.40;99.90;;;;;;5056461;28;20044;-59
2021/10/31 12:32:04;;;;;;;6.13;3.70;;;15.50;99.90;;;;;;5038897;28;20024;-56
2021/10/31 12:34:38;;;;;;;4.88;3.15;;;15.50;99.90;;;;;;5055659;28;20120;-57
2021/10/31 12:37:24;;;;;;;7.72;3.90;;;15.50;99.90;;;;;;5056754;28;20161;-57
2021/10/31 12:39:54;;;;;;;3.15;2.63;;;15.50;99.90;;;;;;5055506;28;20017;-56
2021/10/31 12:42:27;;;;;;;4.95;2.97;;;15.60;99.90;;;;;;5055420;28;20056;-56
2021/10/31 12:45:04;;;;;;;4.00;2.77;;;15.60;99.90;;;;;;5056078;28;20029;-60
2021/10/31 12:47:40;;;;;;;3.85;3.00;;;15.60;99.90;;;;;;5055022;28;20032;-60
2021/10/31 12:50:09;;;;;;;3.85;2.70;;;15.60;99.90;;;;;;5056163;28;20060;-54
2021/10/31 12:52:35;;;;;;;4.35;2.70;;;15.60;99.90;;;;;;5055425;28;20119;-56